sensor_id;sensor_type;location;lat;lon;timestamp;P1;durP1;ratioP1;P2;durP2;ratioP2
14052;SDS011;7101;51.600;7.310;2023-12-28T00:02:04;14.05;;;3.40;;
14052;SDS011;7101;51.600;7.310;2023-12-28T00:04:31;6.80;;;1.88;;
14052;SDS011;7101;51.600;7.310;2023-12-28T00:06:59;7.97;;;2.30;;
14052;SDS011;7101;51.600;7.310;2023-12-28T00:09:26;11.98;;;2.90;;
14052;SDS011;7101;51.600;7.310;2023-12-28T00:11:56;10.13;;;2.67;;
14052;SDS011;7101;51.600;7.310;2023-12-28T00:14:22;10.25;;;2.83;;
14052;SDS011;7101;51.600;7.310;2023-12-28T00:16:49;9.63;;;2.95;;
14052;SDS011;7101;51.600;7.310;2023-12-28T00:19:17;9.15;;;2.83;;
14052;SDS011;7101;51.600;7.310;2023-12-28T00:21:45;6.68;;;2.58;;
14052;SDS011;7101;51.600;7.310;2023-12-28T00:24:14;4.43;;;1.80;;
14052;SDS011;7101;51.600;7.310;2023-12-28T00:26:41;9.65;;;3.72;;
14052;SDS011;7101;51.600;7.310;2023-12-28T00:29:08;6.28;;;2.80;;
14052;SDS011;7101;51.600;7.310;2023-12-28T00:31:34;8.02;;;3.08;;
14052;SDS011;7101;51.600;7.310;2023-12-28T00:34:01;13.73;;;3.95;;
14052;SDS011;7101;51.600;7.310;2023-12-28T00:36:29;3.65;;;1.80;;
14052;SDS011;7101;51.600;7.310;2023-12-28T00:38:56;5.63;;;2.22;;
14052;SDS011;7101;51.600;7.310;2023-12-28T00:41:23;7.35;;;2.28;;
14052;SDS011;7101;51.600;7.310;2023-12-28T00:43:50;5.85;;;2.30;;
14052;SDS011;7101;51.600;7.310;2023-12-28T00:46:17;8.93;;;3.47;;
14052;SDS011;7101;51.600;7.310;2023-12-28T00:48:43;5.82;;;2.33;;
14052;SDS011;7101;51.600;7.310;2023-12-28T00:51:10;5.60;;;2.45;;
14052;SDS011;7101;51.600;7.310;2023-12-28T00:53:38;3.60;;;1.90;;
14052;SDS011;7101;51.600;7.310;2023-12-28T00:56:05;10.10;;;2.72;;
14052;SDS011;7101;51.600;7.310;2023-12-28T00:58:32;3.22;;;1.50;;
14052;SDS011;7101;51.600;7.310;2023-12-28T01:00:59;6.25;;;3.03;;
14052;SDS011;7101;51.600;7.310;2023-12-28T01:03:26;6.00;;;2.90;;
14052;SDS011;7101;51.600;7.310;2023-12-28T01:05:53;2.83;;;1.60;;
14052;SDS011;7101;51.600;7.310;2023-12-28T01:08:19;4.35;;;2.15;;
14052;SDS011;7101;51.600;7.310;2023-12-28T01:10:47;2.55;;;1.80;;
14052;SDS011;7101;51.600;7.310;2023-12-28T01:13:14;2.67;;;1.65;;
14052;SDS011;7101;51.600;7.310;2023-12-28T01:15:42;3.45;;;1.52;;
14052;SDS011;7101;51.600;7.310;2023-12-28T01:18:09;1.92;;;1.40;;
14052;SDS011;7101;51.600;7.310;2023-12-28T01:20:35;2.90;;;1.60;;
14052;SDS011;7101;51.600;7.310;2023-12-28T01:23:02;1.80;;;1.30;;
14052;SDS011;7101;51.600;7.310;2023-12-28T01:25:29;2.63;;;1.38;;
14052;SDS011;7101;51.600;7.310;2023-12-28T01:27:57;2.85;;;1.10;;
14052;SDS011;7101;51.600;7.310;2023-12-28T01:30:24;2.08;;;1.33;;
14052;SDS011;7101;51.600;7.310;2023-12-28T01:32:51;4.53;;;1.40;;
14052;SDS011;7101;51.600;7.310;2023-12-28T01:35:18;2.05;;;1.38;;
14052;SDS011;7101;51.600;7.310;2023-12-28T01:37:44;2.28;;;1.20;;
14052;SDS011;7101;51.600;7.310;2023-12-28T01:40:11;2.80;;;1.50;;
14052;SDS011;7101;51.600;7.310;2023-12-28T01:42:38;2.38;;;1.25;;
14052;SDS011;7101;51.600;7.310;2023-12-28T01:45:07;3.30;;;1.30;;
14052;SDS011;7101;51.600;7.310;2023-12-28T01:47:34;2.20;;;1.30;;
14052;SDS011;7101;51.600;7.310;2023-12-28T01:50:02;2.70;;;1.40;;
14052;SDS011;7101;51.600;7.310;2023-12-28T01:52:29;3.08;;;1.52;;
14052;SDS011;7101;51.600;7.310;2023-12-28T01:54:56;2.88;;;1.33;;
14052;SDS011;7101;51.600;7.310;2023-12-28T01:57:23;2.65;;;1.50;;
14052;SDS011;7101;51.600;7.310;2023-12-28T01:59:50;2.60;;;1.30;;
14052;SDS011;7101;51.600;7.310;2023-12-28T02:02:19;1.95;;;1.48;;
14052;SDS011;7101;51.600;7.310;2023-12-28T02:04:48;3.17;;;1.40;;
14052;SDS011;7101;51.600;7.310;2023-12-28T02:07:15;3.90;;;1.60;;
14052;SDS011;7101;51.600;7.310;2023-12-28T02:09:42;3.45;;;1.48;;
14052;SDS011;7101;51.600;7.310;2023-12-28T02:12:09;1.95;;;1.40;;
14052;SDS011;7101;51.600;7.310;2023-12-28T02:14:36;2.03;;;1.30;;
14052;SDS011;7101;51.600;7.310;2023-12-28T02:17:03;3.67;;;1.30;;
14052;SDS011;7101;51.600;7.310;2023-12-28T02:19:40;2.83;;;1.00;;
14052;SDS011;7101;51.600;7.310;2023-12-28T02:22:13;1.63;;;1.20;;
14052;SDS011;7101;51.600;7.310;2023-12-28T02:24:56;2.42;;;1.30;;
14052;SDS011;7101;51.600;7.310;2023-12-28T02:27:24;1.95;;;1.10;;
14052;SDS011;7101;51.600;7.310;2023-12-28T02:29:52;2.40;;;1.17;;
14052;SDS011;7101;51.600;7.310;2023-12-28T02:32:21;3.30;;;1.30;;
14052;SDS011;7101;51.600;7.310;2023-12-28T02:34:55;3.15;;;1.30;;
14052;SDS011;7101;51.600;7.310;2023-12-28T02:37:26;2.53;;;1.30;;
14052;SDS011;7101;51.600;7.310;2023-12-28T02:39:54;2.38;;;1.38;;
14052;SDS011;7101;51.600;7.310;2023-12-28T02:42:23;1.98;;;1.20;;
14052;SDS011;7101;51.600;7.310;2023-12-28T02:44:50;3.25;;;1.30;;
14052;SDS011;7101;51.600;7.310;2023-12-28T02:47:16;2.97;;;1.35;;
14052;SDS011;7101;51.600;7.310;2023-12-28T02:49:43;3.17;;;1.40;;
14052;SDS011;7101;51.600;7.310;2023-12-28T02:52:10;2.03;;;1.35;;
14052;SDS011;7101;51.600;7.310;2023-12-28T02:54:36;2.15;;;1.30;;
14052;SDS011;7101;51.600;7.310;2023-12-28T02:57:05;2.67;;;1.13;;
14052;SDS011;7101;51.600;7.310;2023-12-28T02:59:31;2.08;;;1.40;;
14052;SDS011;7101;51.600;7.310;2023-12-28T03:01:58;1.40;;;1.02;;
14052;SDS011;7101;51.600;7.310;2023-12-28T03:04:25;2.20;;;1.55;;
14052;SDS011;7101;51.600;7.310;2023-12-28T03:06:52;3.15;;;1.25;;
14052;SDS011;7101;51.600;7.310;2023-12-28T03:09:18;3.17;;;1.30;;
14052;SDS011;7101;51.600;7.310;2023-12-28T03:11:45;3.35;;;1.20;;
14052;SDS011;7101;51.600;7.310;2023-12-28T03:14:13;3.45;;;1.73;;
14052;SDS011;7101;51.600;7.310;2023-12-28T03:16:40;2.78;;;1.20;;
14052;SDS011;7101;51.600;7.310;2023-12-28T03:19:07;2.83;;;1.20;;
14052;SDS011;7101;51.600;7.310;2023-12-28T03:21:38;3.35;;;1.20;;
14052;SDS011;7101;51.600;7.310;2023-12-28T03:24:05;1.70;;;1.10;;
14052;SDS011;7101;51.600;7.310;2023-12-28T03:26:31;2.28;;;1.30;;
14052;SDS011;7101;51.600;7.310;2023-12-28T03:29:00;2.00;;;1.45;;
14052;SDS011;7101;51.600;7.310;2023-12-28T03:31:28;4.55;;;1.10;;
14052;SDS011;7101;51.600;7.310;2023-12-28T03:33:54;3.35;;;1.17;;
14052;SDS011;7101;51.600;7.310;2023-12-28T03:36:21;4.57;;;1.30;;
14052;SDS011;7101;51.600;7.310;2023-12-28T03:38:48;1.73;;;1.20;;
14052;SDS011;7101;51.600;7.310;2023-12-28T03:41:18;1.40;;;1.00;;
14052;SDS011;7101;51.600;7.310;2023-12-28T03:43:45;3.45;;;1.70;;
14052;SDS011;7101;51.600;7.310;2023-12-28T03:46:12;2.45;;;1.55;;
14052;SDS011;7101;51.600;7.310;2023-12-28T03:48:40;1.52;;;1.08;;
14052;SDS011;7101;51.600;7.310;2023-12-28T03:51:07;2.75;;;1.35;;
14052;SDS011;7101;51.600;7.310;2023-12-28T03:53:34;3.92;;;1.80;;
14052;SDS011;7101;51.600;7.310;2023-12-28T03:56:01;4.05;;;1.50;;
14052;SDS011;7101;51.600;7.310;2023-12-28T03:58:28;2.80;;;1.52;;
14052;SDS011;7101;51.600;7.310;2023-12-28T04:00:55;2.97;;;1.30;;
14052;SDS011;7101;51.600;7.310;2023-12-28T04:03:22;2.63;;;1.35;;
14052;SDS011;7101;51.600;7.310;2023-12-28T04:05:50;2.15;;;1.40;;
14052;SDS011;7101;51.600;7.310;2023-12-28T04:08:17;1.67;;;1.20;;
14052;SDS011;7101;51.600;7.310;2023-12-28T04:10:44;2.42;;;1.42;;
14052;SDS011;7101;51.600;7.310;2023-12-28T04:13:11;2.75;;;1.50;;
14052;SDS011;7101;51.600;7.310;2023-12-28T04:15:37;2.78;;;1.20;;
14052;SDS011;7101;51.600;7.310;2023-12-28T04:18:07;5.43;;;1.35;;
14052;SDS011;7101;51.600;7.310;2023-12-28T04:20:34;5.75;;;1.38;;
14052;SDS011;7101;51.600;7.310;2023-12-28T04:23:02;3.50;;;1.27;;
14052;SDS011;7101;51.600;7.310;2023-12-28T04:25:29;3.15;;;1.42;;
14052;SDS011;7101;51.600;7.310;2023-12-28T04:27:56;5.45;;;1.58;;
14052;SDS011;7101;51.600;7.310;2023-12-28T04:30:23;3.28;;;1.40;;
14052;SDS011;7101;51.600;7.310;2023-12-28T04:32:49;1.65;;;1.10;;
14052;SDS011;7101;51.600;7.310;2023-12-28T04:35:16;2.05;;;1.33;;
14052;SDS011;7101;51.600;7.310;2023-12-28T04:37:43;3.05;;;1.40;;
14052;SDS011;7101;51.600;7.310;2023-12-28T04:40:11;2.08;;;1.23;;
14052;SDS011;7101;51.600;7.310;2023-12-28T04:42:39;3.22;;;1.50;;
14052;SDS011;7101;51.600;7.310;2023-12-28T04:45:06;4.70;;;1.60;;
14052;SDS011;7101;51.600;7.310;2023-12-28T04:47:33;3.75;;;1.25;;
14052;SDS011;7101;51.600;7.310;2023-12-28T04:50:00;3.17;;;1.30;;
14052;SDS011;7101;51.600;7.310;2023-12-28T04:52:28;2.38;;;1.40;;
14052;SDS011;7101;51.600;7.310;2023-12-28T04:54:55;5.80;;;1.60;;
14052;SDS011;7101;51.600;7.310;2023-12-28T04:57:23;3.58;;;1.67;;
14052;SDS011;7101;51.600;7.310;2023-12-28T04:59:50;3.55;;;1.58;;
14052;SDS011;7101;51.600;7.310;2023-12-28T05:02:17;2.13;;;1.48;;
14052;SDS011;7101;51.600;7.310;2023-12-28T05:04:44;6.78;;;1.40;;
14052;SDS011;7101;51.600;7.310;2023-12-28T05:07:11;2.67;;;1.35;;
14052;SDS011;7101;51.600;7.310;2023-12-28T05:09:38;3.20;;;1.50;;
14052;SDS011;7101;51.600;7.310;2023-12-28T05:12:05;7.50;;;1.50;;
14052;SDS011;7101;51.600;7.310;2023-12-28T05:14:33;1.83;;;1.10;;
14052;SDS011;7101;51.600;7.310;2023-12-28T05:17:00;4.05;;;1.60;;
14052;SDS011;7101;51.600;7.310;2023-12-28T05:19:27;3.65;;;1.38;;
14052;SDS011;7101;51.600;7.310;2023-12-28T05:21:53;2.00;;;1.05;;
14052;SDS011;7101;51.600;7.310;2023-12-28T05:24:20;1.65;;;1.23;;
14052;SDS011;7101;51.600;7.310;2023-12-28T05:26:48;4.05;;;1.45;;
14052;SDS011;7101;51.600;7.310;2023-12-28T05:29:15;1.80;;;1.23;;
14052;SDS011;7101;51.600;7.310;2023-12-28T05:31:43;2.65;;;1.33;;
14052;SDS011;7101;51.600;7.310;2023-12-28T05:34:10;2.60;;;1.50;;
14052;SDS011;7101;51.600;7.310;2023-12-28T05:36:36;1.90;;;1.02;;
14052;SDS011;7101;51.600;7.310;2023-12-28T05:39:05;4.32;;;1.40;;
14052;SDS011;7101;51.600;7.310;2023-12-28T05:41:34;2.17;;;1.33;;
14052;SDS011;7101;51.600;7.310;2023-12-28T05:44:01;4.10;;;1.50;;
14052;SDS011;7101;51.600;7.310;2023-12-28T05:46:27;1.40;;;1.05;;
14052;SDS011;7101;51.600;7.310;2023-12-28T05:48:55;3.88;;;1.27;;
14052;SDS011;7101;51.600;7.310;2023-12-28T05:51:22;3.28;;;1.13;;
14052;SDS011;7101;51.600;7.310;2023-12-28T05:53:49;2.13;;;0.90;;
14052;SDS011;7101;51.600;7.310;2023-12-28T05:56:16;3.65;;;1.20;;
14052;SDS011;7101;51.600;7.310;2023-12-28T05:58:43;2.67;;;1.30;;
14052;SDS011;7101;51.600;7.310;2023-12-28T06:01:09;2.53;;;1.30;;
14052;SDS011;7101;51.600;7.310;2023-12-28T06:03:36;2.35;;;1.10;;
14052;SDS011;7101;51.600;7.310;2023-12-28T06:06:05;3.13;;;1.23;;
14052;SDS011;7101;51.600;7.310;2023-12-28T06:08:32;3.35;;;1.30;;
14052;SDS011;7101;51.600;7.310;2023-12-28T06:10:59;2.38;;;1.30;;
14052;SDS011;7101;51.600;7.310;2023-12-28T06:13:26;3.90;;;1.10;;
14052;SDS011;7101;51.600;7.310;2023-12-28T06:15:53;3.10;;;1.20;;
14052;SDS011;7101;51.600;7.310;2023-12-28T06:18:20;4.70;;;1.63;;
14052;SDS011;7101;51.600;7.310;2023-12-28T06:20:47;2.75;;;1.40;;
14052;SDS011;7101;51.600;7.310;2023-12-28T06:23:15;3.85;;;1.40;;
14052;SDS011;7101;51.600;7.310;2023-12-28T06:25:42;3.33;;;1.40;;
14052;SDS011;7101;51.600;7.310;2023-12-28T06:28:08;3.00;;;1.75;;
14052;SDS011;7101;51.600;7.310;2023-12-28T06:30:35;4.75;;;1.88;;
14052;SDS011;7101;51.600;7.310;2023-12-28T06:33:02;5.93;;;2.25;;
14052;SDS011;7101;51.600;7.310;2023-12-28T06:35:29;9.65;;;2.58;;
14052;SDS011;7101;51.600;7.310;2023-12-28T06:37:56;6.65;;;2.20;;
14052;SDS011;7101;51.600;7.310;2023-12-28T06:40:24;5.45;;;1.70;;
14052;SDS011;7101;51.600;7.310;2023-12-28T06:42:51;4.55;;;1.20;;
14052;SDS011;7101;51.600;7.310;2023-12-28T06:45:17;2.65;;;1.20;;
14052;SDS011;7101;51.600;7.310;2023-12-28T06:47:44;3.22;;;1.30;;
14052;SDS011;7101;51.600;7.310;2023-12-28T06:50:11;1.15;;;0.90;;
14052;SDS011;7101;51.600;7.310;2023-12-28T06:52:38;4.32;;;1.30;;
14052;SDS011;7101;51.600;7.310;2023-12-28T06:55:04;3.47;;;1.48;;
14052;SDS011;7101;51.600;7.310;2023-12-28T06:57:33;3.00;;;1.05;;
14052;SDS011;7101;51.600;7.310;2023-12-28T07:00:00;6.85;;;1.17;;
14052;SDS011;7101;51.600;7.310;2023-12-28T07:02:28;3.45;;;1.30;;
14052;SDS011;7101;51.600;7.310;2023-12-28T07:04:54;5.57;;;1.05;;
14052;SDS011;7101;51.600;7.310;2023-12-28T07:07:21;2.10;;;1.08;;
14052;SDS011;7101;51.600;7.310;2023-12-28T07:09:48;5.43;;;1.50;;
14052;SDS011;7101;51.600;7.310;2023-12-28T07:12:15;3.40;;;1.08;;
14052;SDS011;7101;51.600;7.310;2023-12-28T07:14:42;2.10;;;1.20;;
14052;SDS011;7101;51.600;7.310;2023-12-28T07:17:09;2.85;;;1.42;;
14052;SDS011;7101;51.600;7.310;2023-12-28T07:19:37;1.73;;;0.90;;
14052;SDS011;7101;51.600;7.310;2023-12-28T07:22:03;4.78;;;1.02;;
14052;SDS011;7101;51.600;7.310;2023-12-28T07:24:30;3.85;;;1.30;;
14052;SDS011;7101;51.600;7.310;2023-12-28T07:26:57;5.35;;;1.30;;
14052;SDS011;7101;51.600;7.310;2023-12-28T07:29:24;2.88;;;1.13;;
14052;SDS011;7101;51.600;7.310;2023-12-28T07:31:53;2.42;;;1.02;;
14052;SDS011;7101;51.600;7.310;2023-12-28T07:34:20;4.05;;;1.25;;
14052;SDS011;7101;51.600;7.310;2023-12-28T07:36:47;4.32;;;1.27;;
14052;SDS011;7101;51.600;7.310;2023-12-28T07:39:13;2.70;;;1.23;;
14052;SDS011;7101;51.600;7.310;2023-12-28T07:41:41;1.73;;;1.10;;
14052;SDS011;7101;51.600;7.310;2023-12-28T07:44:07;4.00;;;1.33;;
14052;SDS011;7101;51.600;7.310;2023-12-28T07:46:34;3.55;;;1.30;;
14052;SDS011;7101;51.600;7.310;2023-12-28T07:49:02;3.00;;;1.50;;
14052;SDS011;7101;51.600;7.310;2023-12-28T07:51:29;4.68;;;1.75;;
14052;SDS011;7101;51.600;7.310;2023-12-28T07:53:56;4.03;;;1.40;;
14052;SDS011;7101;51.600;7.310;2023-12-28T07:56:22;3.45;;;1.25;;
14052;SDS011;7101;51.600;7.310;2023-12-28T07:58:49;3.10;;;1.30;;
14052;SDS011;7101;51.600;7.310;2023-12-28T08:01:16;1.30;;;0.90;;
14052;SDS011;7101;51.600;7.310;2023-12-28T08:03:44;5.47;;;1.10;;
14052;SDS011;7101;51.600;7.310;2023-12-28T08:06:12;4.97;;;1.27;;
14052;SDS011;7101;51.600;7.310;2023-12-28T08:08:39;1.85;;;1.00;;
14052;SDS011;7101;51.600;7.310;2023-12-28T08:11:06;2.30;;;1.27;;
14052;SDS011;7101;51.600;7.310;2023-12-28T08:13:32;4.50;;;1.40;;
14052;SDS011;7101;51.600;7.310;2023-12-28T08:15:59;3.03;;;1.45;;
14052;SDS011;7101;51.600;7.310;2023-12-28T08:18:26;6.88;;;1.33;;
14052;SDS011;7101;51.600;7.310;2023-12-28T08:20:53;6.45;;;1.30;;
14052;SDS011;7101;51.600;7.310;2023-12-28T08:23:21;4.47;;;1.02;;
14052;SDS011;7101;51.600;7.310;2023-12-28T08:25:47;3.20;;;1.25;;
14052;SDS011;7101;51.600;7.310;2023-12-28T08:28:14;5.88;;;1.13;;
14052;SDS011;7101;51.600;7.310;2023-12-28T08:30:42;7.05;;;1.40;;
14052;SDS011;7101;51.600;7.310;2023-12-28T08:33:09;5.45;;;1.52;;
14052;SDS011;7101;51.600;7.310;2023-12-28T08:35:35;3.50;;;1.27;;
14052;SDS011;7101;51.600;7.310;2023-12-28T08:38:02;5.15;;;1.20;;
14052;SDS011;7101;51.600;7.310;2023-12-28T08:40:32;4.88;;;1.48;;
14052;SDS011;7101;51.600;7.310;2023-12-28T08:42:59;4.45;;;1.55;;
14052;SDS011;7101;51.600;7.310;2023-12-28T08:45:26;4.43;;;1.23;;
14052;SDS011;7101;51.600;7.310;2023-12-28T08:47:53;5.10;;;1.15;;
14052;SDS011;7101;51.600;7.310;2023-12-28T08:50:21;3.25;;;1.25;;
14052;SDS011;7101;51.600;7.310;2023-12-28T08:52:47;8.10;;;1.65;;
14052;SDS011;7101;51.600;7.310;2023-12-28T08:55:15;4.32;;;1.40;;
14052;SDS011;7101;51.600;7.310;2023-12-28T08:57:43;3.25;;;1.10;;
14052;SDS011;7101;51.600;7.310;2023-12-28T09:00:11;4.78;;;1.48;;
14052;SDS011;7101;51.600;7.310;2023-12-28T09:02:39;8.68;;;1.38;;
14052;SDS011;7101;51.600;7.310;2023-12-28T09:05:07;6.53;;;1.63;;
14052;SDS011;7101;51.600;7.310;2023-12-28T09:07:33;4.95;;;1.42;;
14052;SDS011;7101;51.600;7.310;2023-12-28T09:10:01;5.47;;;1.40;;
14052;SDS011;7101;51.600;7.310;2023-12-28T09:12:28;4.60;;;1.30;;
14052;SDS011;7101;51.600;7.310;2023-12-28T09:14:57;4.40;;;1.30;;
14052;SDS011;7101;51.600;7.310;2023-12-28T09:17:23;4.85;;;1.30;;
14052;SDS011;7101;51.600;7.310;2023-12-28T09:19:50;5.10;;;1.05;;
14052;SDS011;7101;51.600;7.310;2023-12-28T09:22:17;4.03;;;1.23;;
14052;SDS011;7101;51.600;7.310;2023-12-28T09:24:43;5.22;;;1.33;;
14052;SDS011;7101;51.600;7.310;2023-12-28T09:27:10;4.30;;;1.02;;
14052;SDS011;7101;51.600;7.310;2023-12-28T09:29:37;2.85;;;1.10;;
14052;SDS011;7101;51.600;7.310;2023-12-28T09:32:05;5.35;;;1.10;;
14052;SDS011;7101;51.600;7.310;2023-12-28T09:34:33;8.35;;;1.38;;
14052;SDS011;7101;51.600;7.310;2023-12-28T09:36:59;7.40;;;1.90;;
14052;SDS011;7101;51.600;7.310;2023-12-28T09:39:27;6.80;;;1.50;;
14052;SDS011;7101;51.600;7.310;2023-12-28T09:41:54;8.05;;;1.50;;
14052;SDS011;7101;51.600;7.310;2023-12-28T09:44:25;6.10;;;1.60;;
14052;SDS011;7101;51.600;7.310;2023-12-28T09:46:54;5.25;;;1.73;;
14052;SDS011;7101;51.600;7.310;2023-12-28T09:49:24;4.57;;;1.10;;
14052;SDS011;7101;51.600;7.310;2023-12-28T09:51:51;4.80;;;1.20;;
14052;SDS011;7101;51.600;7.310;2023-12-28T09:54:18;7.70;;;1.42;;
14052;SDS011;7101;51.600;7.310;2023-12-28T09:56:45;4.35;;;1.40;;
14052;SDS011;7101;51.600;7.310;2023-12-28T09:59:12;8.00;;;1.83;;
14052;SDS011;7101;51.600;7.310;2023-12-28T10:01:41;8.55;;;1.55;;
14052;SDS011;7101;51.600;7.310;2023-12-28T10:04:09;4.03;;;1.35;;
14052;SDS011;7101;51.600;7.310;2023-12-28T10:06:37;6.53;;;0.98;;
14052;SDS011;7101;51.600;7.310;2023-12-28T10:09:05;5.43;;;1.30;;
14052;SDS011;7101;51.600;7.310;2023-12-28T10:11:33;5.15;;;1.13;;
14052;SDS011;7101;51.600;7.310;2023-12-28T10:14:00;4.72;;;1.63;;
14052;SDS011;7101;51.600;7.310;2023-12-28T10:16:27;7.00;;;1.58;;
14052;SDS011;7101;51.600;7.310;2023-12-28T10:18:55;4.15;;;1.17;;
14052;SDS011;7101;51.600;7.310;2023-12-28T10:21:23;6.22;;;1.23;;
14052;SDS011;7101;51.600;7.310;2023-12-28T10:23:51;5.03;;;1.55;;
14052;SDS011;7101;51.600;7.310;2023-12-28T10:26:18;6.10;;;1.42;;
14052;SDS011;7101;51.600;7.310;2023-12-28T10:28:45;8.30;;;1.50;;
14052;SDS011;7101;51.600;7.310;2023-12-28T10:31:12;5.03;;;1.98;;
14052;SDS011;7101;51.600;7.310;2023-12-28T10:33:40;5.55;;;1.58;;
14052;SDS011;7101;51.600;7.310;2023-12-28T10:36:10;7.28;;;1.67;;
14052;SDS011;7101;51.600;7.310;2023-12-28T10:38:40;4.05;;;1.20;;
14052;SDS011;7101;51.600;7.310;2023-12-28T10:41:11;4.88;;;1.48;;
14052;SDS011;7101;51.600;7.310;2023-12-28T10:43:41;2.88;;;0.77;;
14052;SDS011;7101;51.600;7.310;2023-12-28T10:46:12;6.13;;;1.50;;
14052;SDS011;7101;51.600;7.310;2023-12-28T10:48:48;7.93;;;1.10;;
14052;SDS011;7101;51.600;7.310;2023-12-28T10:51:18;3.03;;;1.40;;
14052;SDS011;7101;51.600;7.310;2023-12-28T10:53:51;5.38;;;2.17;;
14052;SDS011;7101;51.600;7.310;2023-12-28T10:56:28;3.33;;;1.05;;
14052;SDS011;7101;51.600;7.310;2023-12-28T10:59:04;2.90;;;0.95;;
14052;SDS011;7101;51.600;7.310;2023-12-28T11:01:39;8.52;;;1.05;;
14052;SDS011;7101;51.600;7.310;2023-12-28T11:04:09;4.22;;;1.40;;
14052;SDS011;7101;51.600;7.310;2023-12-28T11:06:41;2.58;;;1.23;;
14052;SDS011;7101;51.600;7.310;2023-12-28T11:09:09;5.93;;;1.40;;
14052;SDS011;7101;51.600;7.310;2023-12-28T11:11:39;4.72;;;1.08;;
14052;SDS011;7101;51.600;7.310;2023-12-28T11:14:06;7.85;;;1.38;;
14052;SDS011;7101;51.600;7.310;2023-12-28T11:16:34;7.35;;;1.33;;
14052;SDS011;7101;51.600;7.310;2023-12-28T11:19:03;3.45;;;1.40;;
14052;SDS011;7101;51.600;7.310;2023-12-28T11:21:30;5.20;;;1.52;;
14052;SDS011;7101;51.600;7.310;2023-12-28T11:23:59;5.38;;;1.63;;
14052;SDS011;7101;51.600;7.310;2023-12-28T11:26:27;7.13;;;1.55;;
14052;SDS011;7101;51.600;7.310;2023-12-28T11:29:01;3.35;;;1.17;;
14052;SDS011;7101;51.600;7.310;2023-12-28T11:31:28;8.82;;;1.20;;
14052;SDS011;7101;51.600;7.310;2023-12-28T11:33:58;8.40;;;2.03;;
14052;SDS011;7101;51.600;7.310;2023-12-28T11:36:26;5.93;;;1.60;;
14052;SDS011;7101;51.600;7.310;2023-12-28T11:39:01;5.65;;;1.17;;
14052;SDS011;7101;51.600;7.310;2023-12-28T11:41:30;8.02;;;1.55;;
14052;SDS011;7101;51.600;7.310;2023-12-28T11:44:01;5.95;;;1.60;;
14052;SDS011;7101;51.600;7.310;2023-12-28T11:46:30;6.13;;;1.52;;
14052;SDS011;7101;51.600;7.310;2023-12-28T11:49:02;5.28;;;1.42;;
14052;SDS011;7101;51.600;7.310;2023-12-28T11:51:30;10.32;;;2.45;;
14052;SDS011;7101;51.600;7.310;2023-12-28T11:53:59;5.78;;;1.65;;
14052;SDS011;7101;51.600;7.310;2023-12-28T11:56:28;6.68;;;1.15;;
14052;SDS011;7101;51.600;7.310;2023-12-28T11:58:55;4.05;;;1.25;;
14052;SDS011;7101;51.600;7.310;2023-12-28T12:01:23;4.82;;;1.67;;
14052;SDS011;7101;51.600;7.310;2023-12-28T12:03:50;7.25;;;1.15;;
14052;SDS011;7101;51.600;7.310;2023-12-28T12:06:18;4.65;;;1.38;;
14052;SDS011;7101;51.600;7.310;2023-12-28T12:08:45;7.47;;;1.60;;
14052;SDS011;7101;51.600;7.310;2023-12-28T12:11:12;6.75;;;1.20;;
14052;SDS011;7101;51.600;7.310;2023-12-28T12:13:39;3.85;;;1.00;;
14052;SDS011;7101;51.600;7.310;2023-12-28T12:16:05;4.15;;;1.27;;
14052;SDS011;7101;51.600;7.310;2023-12-28T12:18:34;3.35;;;1.33;;
14052;SDS011;7101;51.600;7.310;2023-12-28T12:21:01;4.53;;;1.40;;
14052;SDS011;7101;51.600;7.310;2023-12-28T12:23:28;3.55;;;1.15;;
14052;SDS011;7101;51.600;7.310;2023-12-28T12:25:54;5.47;;;1.10;;
14052;SDS011;7101;51.600;7.310;2023-12-28T12:28:21;2.10;;;1.17;;
14052;SDS011;7101;51.600;7.310;2023-12-28T12:30:51;11.50;;;1.65;;
14052;SDS011;7101;51.600;7.310;2023-12-28T12:33:20;3.45;;;1.13;;
14052;SDS011;7101;51.600;7.310;2023-12-28T12:35:51;5.25;;;1.40;;
14052;SDS011;7101;51.600;7.310;2023-12-28T12:38:18;9.35;;;1.90;;
14052;SDS011;7101;51.600;7.310;2023-12-28T12:40:45;5.85;;;1.00;;
14052;SDS011;7101;51.600;7.310;2023-12-28T12:43:12;8.90;;;1.67;;
14052;SDS011;7101;51.600;7.310;2023-12-28T12:45:39;5.47;;;1.15;;
14052;SDS011;7101;51.600;7.310;2023-12-28T12:48:06;6.20;;;1.33;;
14052;SDS011;7101;51.600;7.310;2023-12-28T12:50:33;4.50;;;1.42;;
14052;SDS011;7101;51.600;7.310;2023-12-28T12:53:04;8.50;;;1.50;;
14052;SDS011;7101;51.600;7.310;2023-12-28T12:55:31;5.47;;;1.50;;
14052;SDS011;7101;51.600;7.310;2023-12-28T12:57:58;4.50;;;1.48;;
14052;SDS011;7101;51.600;7.310;2023-12-28T13:00:25;7.45;;;1.33;;
14052;SDS011;7101;51.600;7.310;2023-12-28T13:02:51;9.20;;;1.30;;
14052;SDS011;7101;51.600;7.310;2023-12-28T13:05:21;9.02;;;1.35;;
14052;SDS011;7101;51.600;7.310;2023-12-28T13:07:50;5.53;;;1.52;;
14052;SDS011;7101;51.600;7.310;2023-12-28T13:10:18;5.43;;;1.40;;
14052;SDS011;7101;51.600;7.310;2023-12-28T13:12:44;6.20;;;1.67;;
14052;SDS011;7101;51.600;7.310;2023-12-28T13:15:12;6.88;;;1.75;;
14052;SDS011;7101;51.600;7.310;2023-12-28T13:17:38;6.72;;;1.27;;
14052;SDS011;7101;51.600;7.310;2023-12-28T13:20:06;8.98;;;1.17;;
14052;SDS011;7101;51.600;7.310;2023-12-28T13:22:33;7.20;;;1.52;;
14052;SDS011;7101;51.600;7.310;2023-12-28T13:25:00;4.55;;;1.40;;
14052;SDS011;7101;51.600;7.310;2023-12-28T13:27:28;9.57;;;1.38;;
14052;SDS011;7101;51.600;7.310;2023-12-28T13:29:56;5.60;;;1.20;;
14052;SDS011;7101;51.600;7.310;2023-12-28T13:32:23;6.63;;;1.08;;
14052;SDS011;7101;51.600;7.310;2023-12-28T13:34:50;4.88;;;1.30;;
14052;SDS011;7101;51.600;7.310;2023-12-28T13:37:17;4.72;;;1.48;;
14052;SDS011;7101;51.600;7.310;2023-12-28T13:39:44;7.70;;;1.70;;
14052;SDS011;7101;51.600;7.310;2023-12-28T13:42:12;6.18;;;1.55;;
14052;SDS011;7101;51.600;7.310;2023-12-28T13:44:40;4.45;;;1.55;;
14052;SDS011;7101;51.600;7.310;2023-12-28T13:47:08;4.72;;;1.30;;
14052;SDS011;7101;51.600;7.310;2023-12-28T13:49:35;11.35;;;1.55;;
14052;SDS011;7101;51.600;7.310;2023-12-28T13:52:02;5.82;;;1.60;;
14052;SDS011;7101;51.600;7.310;2023-12-28T13:54:29;6.50;;;1.38;;
14052;SDS011;7101;51.600;7.310;2023-12-28T13:56:56;4.07;;;0.98;;
14052;SDS011;7101;51.600;7.310;2023-12-28T13:59:24;2.78;;;0.88;;
14052;SDS011;7101;51.600;7.310;2023-12-28T14:01:52;11.25;;;1.42;;
14052;SDS011;7101;51.600;7.310;2023-12-28T14:04:19;10.02;;;1.60;;
14052;SDS011;7101;51.600;7.310;2023-12-28T14:06:46;6.75;;;1.33;;
14052;SDS011;7101;51.600;7.310;2023-12-28T14:09:13;4.95;;;1.23;;
14052;SDS011;7101;51.600;7.310;2023-12-28T14:11:44;7.55;;;1.23;;
14052;SDS011;7101;51.600;7.310;2023-12-28T14:14:11;3.95;;;1.42;;
14052;SDS011;7101;51.600;7.310;2023-12-28T14:16:38;4.40;;;1.40;;
14052;SDS011;7101;51.600;7.310;2023-12-28T14:19:06;4.70;;;1.10;;
14052;SDS011;7101;51.600;7.310;2023-12-28T14:21:34;3.78;;;1.50;;
14052;SDS011;7101;51.600;7.310;2023-12-28T14:24:01;4.00;;;1.20;;
14052;SDS011;7101;51.600;7.310;2023-12-28T14:26:29;7.47;;;1.92;;
14052;SDS011;7101;51.600;7.310;2023-12-28T14:28:58;3.83;;;1.20;;
14052;SDS011;7101;51.600;7.310;2023-12-28T14:31:28;8.70;;;1.90;;
14052;SDS011;7101;51.600;7.310;2023-12-28T14:33:55;10.02;;;1.48;;
14052;SDS011;7101;51.600;7.310;2023-12-28T14:36:25;3.10;;;1.00;;
14052;SDS011;7101;51.600;7.310;2023-12-28T14:38:56;3.67;;;1.25;;
14052;SDS011;7101;51.600;7.310;2023-12-28T14:41:23;2.97;;;1.27;;
14052;SDS011;7101;51.600;7.310;2023-12-28T14:43:50;3.75;;;1.42;;
14052;SDS011;7101;51.600;7.310;2023-12-28T14:46:16;7.25;;;1.80;;
14052;SDS011;7101;51.600;7.310;2023-12-28T14:48:43;6.85;;;1.27;;
14052;SDS011;7101;51.600;7.310;2023-12-28T14:51:10;5.80;;;1.73;;
14052;SDS011;7101;51.600;7.310;2023-12-28T14:53:38;5.63;;;1.40;;
14052;SDS011;7101;51.600;7.310;2023-12-28T14:56:05;4.22;;;1.33;;
14052;SDS011;7101;51.600;7.310;2023-12-28T14:58:32;4.47;;;1.27;;
14052;SDS011;7101;51.600;7.310;2023-12-28T15:00:59;2.65;;;1.15;;
14052;SDS011;7101;51.600;7.310;2023-12-28T15:03:25;6.75;;;1.60;;